createdAt,value
2018-11-13T00:00:19.381Z,101395.02
2018-11-13T00:02:48.730Z,101396.02
2018-11-13T00:05:17.510Z,101402.17
2018-11-13T00:07:46.359Z,101406.36
2018-11-13T00:10:15.281Z,101403.34
2018-11-13T00:12:44.575Z,101410.37
2018-11-13T00:15:13.878Z,101413.41
2018-11-13T00:17:42.674Z,101411.09
2018-11-13T00:20:14.557Z,101413.75
2018-11-13T00:22:43.989Z,101418.44
2018-11-13T00:25:14.667Z,101431.80
2018-11-13T00:27:43.890Z,101428.98
2018-11-13T00:30:15.398Z,101423.80
2018-11-13T00:32:45.030Z,101434.83
2018-11-13T00:35:14.881Z,101435.16
2018-11-13T00:37:44.195Z,101430.30
2018-11-13T00:40:14.059Z,101438.83
2018-11-13T00:42:44.156Z,101430.83
2018-11-13T00:45:13.053Z,101436.46
2018-11-13T00:47:41.895Z,101439.49
2018-11-13T00:50:12.495Z,101433.31
2018-11-13T00:52:41.920Z,101437.46
2018-11-13T00:55:11.043Z,101430.13
2018-11-13T00:57:40.639Z,101425.77
2018-11-13T01:00:14.056Z,101416.75
2018-11-13T01:02:43.275Z,101419.97
2018-11-13T01:05:13.799Z,101420.47
2018-11-13T01:07:43.476Z,101405.76
2018-11-13T01:10:14.058Z,101402.09
2018-11-13T01:12:44.171Z,101405.76
2018-11-13T01:15:14.518Z,101407.76
2018-11-13T01:17:44.610Z,101418.11
2018-11-13T01:20:13.879Z,101422.78
2018-11-13T01:22:42.683Z,101427.45
2018-11-13T01:25:12.755Z,101430.78
2018-11-13T01:27:42.017Z,101442.01
2018-11-13T01:30:11.849Z,101436.14
2018-11-13T01:32:41.516Z,101435.14
2018-11-13T01:35:11.922Z,101443.16
2018-11-13T01:37:41.007Z,101455.85
2018-11-13T01:40:14.346Z,101459.22
2018-11-13T01:42:43.588Z,101461.20
2018-11-13T01:45:14.022Z,101458.88
2018-11-13T01:47:42.930Z,101457.88
2018-11-13T01:50:12.425Z,101466.22
2018-11-13T01:52:41.310Z,101464.20
2018-11-13T01:55:13.019Z,101470.73
2018-11-13T01:57:41.890Z,101475.24
2018-11-13T02:00:17.894Z,101472.88
2018-11-13T02:02:48.122Z,101472.23
2018-11-13T02:05:17.718Z,101469.55
2018-11-13T02:07:46.816Z,101454.51
2018-11-13T02:10:16.036Z,101453.69
2018-11-13T02:12:45.010Z,101455.52
2018-11-13T02:15:13.950Z,101466.22
2018-11-13T02:17:43.317Z,101468.06
2018-11-13T02:20:15.511Z,101466.88
2018-11-13T02:22:44.878Z,101461.20
2018-11-13T02:25:14.985Z,101484.77
2018-11-13T02:27:44.087Z,101475.73
2018-11-13T02:30:15.325Z,101470.72
2018-11-13T02:32:44.685Z,101463.87
2018-11-13T02:35:13.994Z,101465.06
2018-11-13T02:37:43.018Z,101463.87
2018-11-13T02:40:12.068Z,101460.54
2018-11-13T02:42:41.177Z,101472.75
2018-11-13T02:45:11.999Z,101484.44
2018-11-13T02:47:41.269Z,101488.08
2018-11-13T02:50:12.065Z,101460.36
2018-11-13T02:52:41.258Z,101437.30
2018-11-13T02:55:10.888Z,101445.16
2018-11-13T02:57:39.681Z,101447.17
2018-11-13T03:00:11.084Z,101461.55
2018-11-13T03:02:39.943Z,101473.58
2018-11-13T03:05:10.653Z,101478.91
2018-11-13T03:07:40.095Z,101478.57
2018-11-13T03:10:10.627Z,101489.59
2018-11-13T03:12:39.448Z,101498.28
2018-11-13T03:15:10.157Z,101505.61
2018-11-13T03:17:38.946Z,101485.58
2018-11-13T03:20:09.956Z,101469.53
2018-11-13T03:22:38.932Z,101466.88
2018-11-13T03:25:09.962Z,101461.88
2018-11-13T03:27:39.412Z,101466.88
2018-11-13T03:30:13.048Z,101472.55
2018-11-13T03:32:41.848Z,101490.25
2018-11-13T03:35:10.639Z,101490.27
2018-11-13T03:37:39.730Z,101480.39
2018-11-13T03:40:09.393Z,101494.25
2018-11-13T03:42:38.199Z,101500.77
2018-11-13T03:45:08.090Z,101511.30
2018-11-13T03:47:37.060Z,101509.62
2018-11-13T03:50:06.532Z,101492.94
2018-11-13T03:52:35.286Z,101485.91
2018-11-13T03:55:04.757Z,101487.59
2018-11-13T03:57:33.837Z,101480.57
2018-11-13T04:00:02.679Z,101483.90
2018-11-13T04:02:31.526Z,101497.40
2018-11-13T04:05:00.370Z,101497.87
2018-11-13T04:07:29.438Z,101497.56
2018-11-13T04:09:58.263Z,101490.20
2018-11-13T04:12:27.069Z,101478.38
2018-11-13T04:14:56.491Z,101454.16
2018-11-13T04:17:25.274Z,101459.34
2018-11-13T04:19:54.122Z,101460.50
2018-11-13T04:22:22.894Z,101459.33
2018-11-13T04:24:51.692Z,101464.33
2018-11-13T04:27:20.455Z,101462.62
2018-11-13T04:29:49.282Z,101467.33
2018-11-13T04:32:18.334Z,101472.48
2018-11-13T04:34:47.079Z,101474.66
2018-11-13T04:37:15.924Z,101474.13
2018-11-13T04:39:44.989Z,101482.98
2018-11-13T04:42:13.726Z,101491.33
2018-11-13T04:44:42.499Z,101491.33
2018-11-13T04:47:11.561Z,101493.50
2018-11-13T04:49:40.341Z,101481.52
2018-11-13T04:52:09.284Z,101473.01
2018-11-13T04:54:38.014Z,101476.52
2018-11-13T04:57:07.131Z,101488.53
2018-11-13T04:59:36.217Z,101492.54
2018-11-13T05:02:05.102Z,101488.53
2018-11-13T05:04:34.249Z,101486.20
2018-11-13T05:07:03.192Z,101487.72
2018-11-13T05:09:32.273Z,101488.03
2018-11-13T05:12:01.118Z,101487.03
2018-11-13T05:14:29.936Z,101493.19
2018-11-13T05:16:58.883Z,101493.48
2018-11-13T05:19:27.954Z,101497.48
2018-11-13T05:21:56.796Z,101492.80
2018-11-13T05:24:25.903Z,101492.11
2018-11-13T05:26:54.758Z,101495.46
2018-11-13T05:29:23.549Z,101497.79
2018-11-13T05:31:52.394Z,101494.81
2018-11-13T05:34:21.121Z,101501.48
2018-11-13T05:36:50.268Z,101509.19
2018-11-13T05:39:19.027Z,101521.17
2018-11-13T05:41:47.899Z,101524.48
2018-11-13T05:44:17.302Z,101514.98
2018-11-13T05:46:46.675Z,101504.43
2018-11-13T05:49:15.576Z,101503.78
2018-11-13T05:51:44.419Z,101512.81
2018-11-13T05:54:13.184Z,101509.30
2018-11-13T05:56:42.220Z,101509.50
2018-11-13T05:59:11.312Z,101516.48
2018-11-13T06:01:40.429Z,101514.45
2018-11-13T06:04:09.266Z,101523.61
2018-11-13T06:06:38.225Z,101523.45
2018-11-13T06:09:08.182Z,101515.45
2018-11-13T06:11:37.064Z,101512.74
2018-11-13T06:14:06.395Z,101513.39
2018-11-13T06:16:35.457Z,101527.87
2018-11-13T06:19:04.558Z,101531.38
2018-11-13T06:21:33.428Z,101522.69
2018-11-13T06:24:02.262Z,101522.72
2018-11-13T06:26:31.895Z,101521.73
2018-11-13T06:29:00.803Z,101534.73
2018-11-13T06:31:29.661Z,101549.61
2018-11-13T06:33:58.940Z,101561.23
2018-11-13T06:36:27.800Z,101562.37
2018-11-13T06:38:56.759Z,101538.69
2018-11-13T06:41:25.468Z,101531.87
2018-11-13T06:43:54.321Z,101533.55
2018-11-13T06:46:23.382Z,101549.38
2018-11-13T06:48:52.263Z,101569.23
2018-11-13T06:51:21.105Z,101572.88
2018-11-13T06:54:00.821Z,101571.20
2018-11-13T06:56:29.687Z,101576.89
2018-11-13T06:58:58.517Z,101561.42
2018-11-13T07:01:27.578Z,101562.95
2018-11-13T07:03:56.423Z,101565.98
2018-11-13T07:06:25.526Z,101564.18
2018-11-13T07:08:54.352Z,101560.83
2018-11-13T07:11:23.689Z,101566.55
2018-11-13T07:13:52.450Z,101570.21
2018-11-13T07:16:21.605Z,101569.22
2018-11-13T07:18:50.426Z,101577.58
2018-11-13T07:21:19.593Z,101581.25
2018-11-13T07:23:48.429Z,101579.95
2018-11-13T07:26:17.253Z,101589.30
2018-11-13T07:28:46.538Z,101594.98
2018-11-13T07:31:15.696Z,101578.61
2018-11-13T07:33:44.514Z,101591.44
2018-11-13T07:36:13.415Z,101598.41
2018-11-13T07:38:42.261Z,101605.08
2018-11-13T07:41:11.178Z,101610.92
2018-11-13T07:43:40.097Z,101615.30
2018-11-13T07:46:08.913Z,101624.95
2018-11-13T07:48:37.781Z,101615.91
2018-11-13T07:51:06.584Z,101623.56
2018-11-13T07:53:35.898Z,101616.23
2018-11-13T07:56:04.736Z,101612.73
2018-11-13T07:58:33.561Z,101625.89
2018-11-13T08:01:02.369Z,101608.73
2018-11-13T08:03:37.217Z,101614.42
2018-11-13T08:06:06.594Z,101607.79
2018-11-13T08:08:35.388Z,101607.95
2018-11-13T08:11:05.156Z,101604.63
2018-11-13T08:13:34.821Z,101617.34
2018-11-13T08:16:03.627Z,101620.02
2018-11-13T08:18:33.008Z,101622.67
2018-11-13T08:21:02.155Z,101638.05
2018-11-13T08:23:30.993Z,101633.70
2018-11-13T08:25:59.796Z,101640.38
2018-11-13T08:28:28.671Z,101641.88
2018-11-13T08:30:57.539Z,101643.05
2018-11-13T08:33:26.341Z,101634.89
2018-11-13T08:35:55.144Z,101634.09
2018-11-13T08:38:24.274Z,101628.75
2018-11-13T08:40:53.063Z,101619.59
2018-11-13T08:43:21.903Z,101620.09
2018-11-13T08:45:50.654Z,101621.08
2018-11-13T08:48:19.830Z,101624.75
2018-11-13T08:50:48.755Z,101628.75
2018-11-13T08:53:17.588Z,101632.45
2018-11-13T08:55:46.478Z,101642.45
2018-11-13T08:58:15.568Z,101639.44
2018-11-13T09:00:44.662Z,101639.78
2018-11-13T09:03:13.525Z,101631.12
2018-11-13T09:05:42.333Z,101645.66
2018-11-13T09:08:11.198Z,101653.52
2018-11-13T09:10:40.991Z,101647.16
2018-11-13T09:13:09.791Z,101657.03
2018-11-13T09:15:38.669Z,101660.20
2018-11-13T09:18:08.321Z,101661.88
2018-11-13T09:20:37.020Z,101663.52
2018-11-13T09:23:06.135Z,101668.38
2018-11-13T09:25:35.211Z,101683.21
2018-11-13T09:28:04.141Z,101681.73
2018-11-13T09:30:33.750Z,101681.57
2018-11-13T09:33:02.442Z,101672.88
2018-11-13T09:35:31.238Z,101677.57
2018-11-13T09:38:00.054Z,101678.75
2018-11-13T09:40:28.912Z,101681.42
2018-11-13T09:42:58.072Z,101693.64
2018-11-13T09:45:27.217Z,101689.79
2018-11-13T09:47:56.108Z,101692.61
2018-11-13T09:50:24.924Z,101691.97
2018-11-13T09:52:54.040Z,101696.85
2018-11-13T09:55:23.641Z,101707.35
2018-11-13T09:57:52.442Z,101714.72
2018-11-13T10:00:23.254Z,101705.67
2018-11-13T10:02:54.379Z,101705.56
2018-11-13T10:05:23.491Z,101700.38
2018-11-13T10:07:53.137Z,101703.58
2018-11-13T10:10:22.252Z,101704.07
2018-11-13T10:12:51.082Z,101706.74
2018-11-13T10:15:21.982Z,101710.41
2018-11-13T10:17:51.607Z,101715.72
2018-11-13T10:20:20.777Z,101710.71
2018-11-13T10:22:51.283Z,101716.89
2018-11-13T10:25:20.440Z,101716.89
2018-11-13T10:27:49.818Z,101716.21
2018-11-13T10:30:20.891Z,101713.73
2018-11-13T10:32:50.394Z,101714.38
2018-11-13T10:35:21.388Z,101718.53
2018-11-13T10:37:50.211Z,101714.38
2018-11-13T10:40:20.138Z,101717.39
2018-11-13T10:42:49.176Z,101706.55
2018-11-13T10:45:21.955Z,101713.38
2018-11-13T10:47:50.750Z,101702.70
2018-11-13T10:50:21.490Z,101716.09
2018-11-13T10:52:50.401Z,101713.27
2018-11-13T10:55:19.340Z,101719.45
2018-11-13T10:57:48.433Z,101722.13
2018-11-13T11:00:22.899Z,101734.16
2018-11-13T11:02:57.120Z,101738.33
2018-11-13T11:05:27.099Z,101728.66
2018-11-13T11:07:56.257Z,101724.84
2018-11-13T11:10:25.402Z,101725.03
2018-11-13T11:12:54.880Z,101714.87
2018-11-13T11:15:23.785Z,101715.37
2018-11-13T11:17:52.692Z,101715.59
2018-11-13T11:20:21.729Z,101716.77
2018-11-13T11:22:51.233Z,101719.23
2018-11-13T11:25:20.393Z,101722.70
2018-11-13T11:27:49.337Z,101729.23
2018-11-13T11:30:18.379Z,101734.39
2018-11-13T11:32:47.743Z,101735.27
2018-11-13T11:35:16.991Z,101729.88
2018-11-13T11:37:45.884Z,101724.87
2018-11-13T11:40:14.725Z,101712.01
2018-11-13T11:42:43.802Z,101720.68
2018-11-13T11:45:14.229Z,101714.53
2018-11-13T11:47:43.277Z,101704.17
2018-11-13T11:50:13.268Z,101705.02
2018-11-13T11:52:42.414Z,101700.51
2018-11-13T11:55:12.014Z,101718.20
2018-11-13T11:57:40.842Z,101734.92
2018-11-13T12:00:19.051Z,101738.25
2018-11-13T12:02:47.813Z,101725.56
2018-11-13T12:05:16.734Z,101727.89
2018-11-13T12:07:45.551Z,101732.63
2018-11-13T12:10:14.719Z,101730.23
2018-11-13T12:12:43.533Z,101724.60
2018-11-13T12:15:13.495Z,101716.27
2018-11-13T12:17:42.885Z,101716.64
2018-11-13T12:20:13.041Z,101710.30
2018-11-13T12:22:41.955Z,101718.52
2018-11-13T12:25:12.945Z,101715.34
2018-11-13T12:27:42.149Z,101718.22
2018-11-13T12:30:14.021Z,101718.91
2018-11-13T12:32:43.280Z,101719.06
2018-11-13T12:35:13.938Z,101724.41
2018-11-13T12:37:42.708Z,101721.08
2018-11-13T12:40:17.306Z,101715.55
2018-11-13T12:42:46.994Z,101723.42
2018-11-13T12:45:15.896Z,101719.73
2018-11-13T12:47:45.330Z,101722.70
2018-11-13T12:50:15.273Z,101727.37
2018-11-13T12:52:44.177Z,101731.09
2018-11-13T12:55:19.280Z,101741.14
2018-11-13T12:57:48.492Z,101733.78
2018-11-13T13:00:20.584Z,101741.48
2018-11-13T13:02:49.497Z,101743.15
2018-11-13T13:05:18.366Z,101744.48
2018-11-13T13:07:47.836Z,101742.50
2018-11-13T13:10:17.949Z,101742.48
2018-11-13T13:12:46.810Z,101742.16
2018-11-13T13:15:17.103Z,101742.99
2018-11-13T13:17:46.263Z,101742.80
2018-11-13T13:20:17.489Z,101744.16
2018-11-13T13:22:47.299Z,101744.98
2018-11-13T13:25:17.353Z,101756.20
2018-11-13T13:27:46.323Z,101764.91
2018-11-13T13:30:25.332Z,101767.27
2018-11-13T13:32:54.233Z,101761.39
2018-11-13T13:35:59.759Z,101764.91
2018-11-13T13:38:28.768Z,101767.61
2018-11-13T13:40:59.217Z,101771.78
2018-11-13T13:43:29.030Z,101774.80
2018-11-13T13:45:58.387Z,101777.46
2018-11-13T13:48:27.836Z,101776.97
2018-11-13T13:50:56.796Z,101783.64
2018-11-13T13:53:26.543Z,101784.98
2018-11-13T13:55:55.487Z,101788.30
2018-11-13T13:58:25.022Z,101787.96
2018-11-13T14:00:54.356Z,101784.30
2018-11-13T14:03:23.044Z,101790.66
2018-11-13T14:05:51.990Z,101789.00
2018-11-13T14:08:21.387Z,101783.98
2018-11-13T14:10:50.234Z,101785.33
2018-11-13T14:13:18.986Z,101783.13
2018-11-13T14:15:47.883Z,101787.31
2018-11-13T14:18:16.758Z,101786.10
2018-11-13T14:20:45.628Z,101784.45
2018-11-13T14:23:14.473Z,101785.95
2018-11-13T14:25:43.371Z,101788.63
2018-11-13T14:28:12.567Z,101787.95
2018-11-13T14:30:41.378Z,101791.62
2018-11-13T14:33:11.448Z,101791.62
2018-11-13T14:35:40.391Z,101795.11
2018-11-13T14:38:09.271Z,101797.28
2018-11-13T14:40:40.533Z,101801.27
2018-11-13T14:43:09.903Z,101797.44
2018-11-13T14:45:38.730Z,101805.44
2018-11-13T14:48:08.290Z,101802.60
2018-11-13T14:50:37.570Z,101800.92
2018-11-13T14:53:07.054Z,101807.42
2018-11-13T14:55:37.330Z,101808.91
2018-11-13T14:58:07.495Z,101814.27
2018-11-13T15:00:37.142Z,101816.09
2018-11-13T15:03:07.545Z,101820.76
2018-11-13T15:05:36.516Z,101820.76
2018-11-13T15:08:06.824Z,101819.42
2018-11-13T15:10:43.547Z,101824.77
2018-11-13T15:13:12.857Z,101827.94
2018-11-13T15:15:42.056Z,101826.22
2018-11-13T15:18:11.280Z,101830.92
2018-11-13T15:20:40.788Z,101842.27
2018-11-13T15:23:10.846Z,101843.94
2018-11-13T15:25:39.806Z,101853.64
2018-11-13T15:28:09.646Z,101870.53
2018-11-13T15:30:41.030Z,101860.97
2018-11-13T15:33:11.427Z,101836.09
2018-11-13T15:35:40.610Z,101835.72
2018-11-13T15:38:09.837Z,101843.69
2018-11-13T15:40:38.906Z,101863.52
2018-11-13T15:43:07.806Z,101876.13
2018-11-13T15:45:36.572Z,101878.81
2018-11-13T15:48:06.912Z,101869.73
2018-11-13T15:50:36.920Z,101876.41
2018-11-13T15:53:06.329Z,101866.84
2018-11-13T15:55:35.398Z,101874.14
2018-11-13T15:58:04.839Z,101879.14
2018-11-13T16:00:35.978Z,101885.47
2018-11-13T16:03:21.588Z,101888.31
2018-11-13T16:05:52.862Z,101883.14
2018-11-13T16:08:22.129Z,101887.13
2018-11-13T16:10:50.995Z,101896.39
2018-11-13T16:13:19.858Z,101888.02
2018-11-13T16:15:48.720Z,101892.69
2018-11-13T16:18:19.177Z,101896.34
2018-11-13T16:20:47.999Z,101891.53
2018-11-13T16:23:16.947Z,101893.67
2018-11-13T16:25:45.876Z,101890.36
2018-11-13T16:28:14.769Z,101886.91
2018-11-13T16:30:43.836Z,101889.38
2018-11-13T16:33:12.620Z,101892.73
2018-11-13T16:35:41.493Z,101886.20
2018-11-13T16:38:11.725Z,101902.78
2018-11-13T16:40:41.207Z,101902.46
2018-11-13T16:43:09.722Z,101908.41
2018-11-13T16:45:38.508Z,101908.21
2018-11-13T16:48:07.768Z,101915.94
2018-11-13T16:50:37.704Z,101915.38
2018-11-13T16:53:07.340Z,101912.08
2018-11-13T16:55:41.582Z,101922.61
2018-11-13T16:58:12.275Z,101921.22
2018-11-13T17:00:41.222Z,101926.39
2018-11-13T17:03:09.979Z,101882.86
2018-11-13T17:05:38.868Z,101895.65
2018-11-13T17:08:14.962Z,101913.05
2018-11-13T17:10:44.348Z,101921.65
2018-11-13T17:13:13.345Z,101930.21
2018-11-13T17:15:42.564Z,101935.17
2018-11-13T17:18:13.598Z,101935.31
2018-11-13T17:20:41.185Z,101938.91
2018-11-13T17:23:09.948Z,101945.16
2018-11-13T17:25:39.508Z,101952.74
2018-11-13T17:28:08.724Z,101956.92
2018-11-13T17:30:38.042Z,101963.17
2018-11-13T17:33:08.598Z,101962.78
2018-11-13T17:35:37.434Z,101963.62
2018-11-13T17:38:07.034Z,101972.16
2018-11-13T17:40:37.127Z,101979.66
2018-11-13T17:43:07.124Z,101980.41
2018-11-13T17:45:37.825Z,101982.64
2018-11-13T17:48:08.814Z,101993.59
2018-11-13T17:50:39.139Z,101985.83
2018-11-13T17:53:09.235Z,101984.84
2018-11-13T17:55:39.149Z,102001.73
2018-11-13T17:58:10.251Z,101994.95
2018-11-13T18:00:42.047Z,102000.95
2018-11-13T18:03:19.047Z,102009.76
2018-11-13T18:05:48.874Z,102009.36
2018-11-13T18:08:17.786Z,102006.83
2018-11-13T18:10:47.351Z,102012.73
2018-11-13T18:13:16.198Z,102023.26
2018-11-13T18:15:44.971Z,102024.81
2018-11-13T18:18:14.486Z,102028.32
2018-11-13T18:20:43.702Z,102034.63
2018-11-13T18:23:12.562Z,102044.36
2018-11-13T18:25:41.401Z,102041.02
2018-11-13T18:28:10.382Z,102049.48
2018-11-13T18:30:39.826Z,102056.06
2018-11-13T18:33:09.467Z,102061.33
2018-11-13T18:35:39.376Z,102054.25
2018-11-13T18:38:10.042Z,102051.85
2018-11-13T18:40:39.060Z,102060.55
2018-11-13T18:43:08.267Z,102064.91
2018-11-13T18:45:38.727Z,102070.07
2018-11-13T18:48:08.095Z,102066.08
2018-11-13T18:50:38.422Z,102072.05
2018-11-13T18:53:07.499Z,102074.91
2018-11-13T18:55:36.504Z,102076.05
2018-11-13T18:58:06.107Z,102076.67
2018-11-13T19:00:36.404Z,102084.11
2018-11-13T19:03:06.732Z,102083.95
2018-11-13T19:05:35.811Z,102086.81
2018-11-13T19:08:05.048Z,102088.14
2018-11-13T19:10:39.765Z,102095.13
2018-11-13T19:13:11.986Z,102104.67
2018-11-13T19:15:43.460Z,102105.52
2018-11-13T19:18:13.691Z,102103.83
2018-11-13T19:20:42.830Z,102106.49
2018-11-13T19:23:11.692Z,102106.27
2018-11-13T19:25:41.157Z,102116.44
2018-11-13T19:28:10.264Z,102119.09
2018-11-13T19:30:39.322Z,102127.80
2018-11-13T19:33:08.373Z,102118.89
2018-11-13T19:35:37.752Z,102120.42
2018-11-13T19:38:07.151Z,102124.16
2018-11-13T19:40:36.442Z,102113.77
2018-11-13T19:43:07.024Z,102121.82
2018-11-13T19:45:35.887Z,102122.00
2018-11-13T19:48:04.954Z,102123.44
2018-11-13T19:50:35.613Z,102126.78
2018-11-13T19:53:04.743Z,102127.25
2018-11-13T19:55:34.527Z,102130.88
2018-11-13T19:58:03.430Z,102130.82
2018-11-13T20:00:33.600Z,102129.75
2018-11-13T20:03:03.754Z,102140.16
2018-11-13T20:05:33.197Z,102136.30
2018-11-13T20:08:02.513Z,102143.23
2018-11-13T20:10:32.488Z,102143.98
2018-11-13T20:13:03.200Z,102146.28
2018-11-13T20:15:32.959Z,102145.59
2018-11-13T20:18:02.052Z,102144.33
2018-11-13T20:20:32.050Z,102145.41
2018-11-13T20:23:02.468Z,102149.30
2018-11-13T20:25:33.278Z,102146.64
2018-11-13T20:28:02.492Z,102145.23
2018-11-13T20:30:33.593Z,102153.91
2018-11-13T20:33:02.588Z,102146.28
2018-11-13T20:35:32.418Z,102148.94
2018-11-13T20:38:02.484Z,102149.23
2018-11-13T20:40:32.934Z,102148.26
2018-11-13T20:43:03.271Z,102151.05
2018-11-13T20:45:32.310Z,102151.78
2018-11-13T20:48:01.405Z,102153.76
2018-11-13T20:50:31.948Z,102152.50
2018-11-13T20:53:01.050Z,102162.00
2018-11-13T20:55:30.383Z,102161.75
2018-11-13T20:57:59.762Z,102162.97
2018-11-13T21:00:31.841Z,102167.02
2018-11-13T21:03:01.127Z,102161.09
2018-11-13T21:05:31.749Z,102165.80
2018-11-13T21:08:00.772Z,102161.25
2018-11-13T21:10:34.243Z,102161.98
2018-11-13T21:13:03.977Z,102163.67
2018-11-13T21:15:33.041Z,102165.72
2018-11-13T21:18:02.106Z,102169.48
2018-11-13T21:20:31.050Z,102171.30
2018-11-13T21:22:59.999Z,102172.55
2018-11-13T21:25:29.022Z,102169.24
2018-11-13T21:27:59.658Z,102174.57
2018-11-13T21:30:28.652Z,102186.34
2018-11-13T21:32:57.489Z,102182.36
2018-11-13T21:35:26.596Z,102186.98
2018-11-13T21:37:56.520Z,102190.74
2018-11-13T21:40:26.568Z,102196.67
2018-11-13T21:42:56.079Z,102201.14
2018-11-13T21:45:26.300Z,102201.27
2018-11-13T21:47:55.187Z,102196.55
2018-11-13T21:50:25.765Z,102194.53
2018-11-13T21:52:54.746Z,102199.98
2018-11-13T21:55:24.753Z,102201.09
2018-11-13T21:57:53.646Z,102205.57
2018-11-13T22:00:28.529Z,102203.96
2018-11-13T22:03:00.574Z,102203.45
2018-11-13T22:05:30.294Z,102200.78
2018-11-13T22:07:59.304Z,102209.92
2018-11-13T22:10:28.119Z,102205.09
2018-11-13T22:12:56.935Z,102207.88
2018-11-13T22:15:26.848Z,102207.03
2018-11-13T22:17:55.780Z,102217.63
2018-11-13T22:20:25.163Z,102212.31
2018-11-13T22:22:55.414Z,102214.73
2018-11-13T22:25:25.165Z,102216.50
2018-11-13T22:27:55.198Z,102224.72
2018-11-13T22:30:25.526Z,102225.33
2018-11-13T22:32:54.360Z,102228.84
2018-11-13T22:35:23.499Z,102232.70
2018-11-13T22:37:52.656Z,102221.22
2018-11-13T22:40:23.663Z,102224.72
2018-11-13T22:42:52.833Z,102227.38
2018-11-13T22:45:27.996Z,102233.55
2018-11-13T22:47:57.440Z,102238.95
2018-11-13T22:50:27.767Z,102240.33
2018-11-13T22:52:56.731Z,102234.28
2018-11-13T22:55:25.515Z,102238.76
2018-11-13T22:57:55.401Z,102239.84
2018-11-13T23:00:37.536Z,102242.02
2018-11-13T23:03:07.569Z,102241.78
2018-11-13T23:05:36.354Z,102247.70
2018-11-13T23:08:06.779Z,102245.16
2018-11-13T23:10:35.611Z,102255.69
2018-11-13T23:13:04.854Z,102251.00
2018-11-13T23:15:33.335Z,102247.86
2018-11-13T23:18:09.082Z,102249.16
2018-11-13T23:20:38.041Z,102246.58
2018-11-13T23:23:07.050Z,102245.73
2018-11-13T23:25:36.131Z,102258.31
2018-11-13T23:28:05.336Z,102258.19
2018-11-13T23:30:34.186Z,102263.63
2018-11-13T23:33:03.026Z,102268.95
2018-11-13T23:35:32.177Z,102264.84
2018-11-13T23:38:01.325Z,102267.23
2018-11-13T23:40:30.239Z,102270.02
2018-11-13T23:42:59.253Z,102266.74
2018-11-13T23:45:28.188Z,102270.01
2018-11-13T23:47:57.050Z,102276.27
2018-11-13T23:50:26.296Z,102274.93
2018-11-13T23:52:55.001Z,102270.58
2018-11-13T23:55:23.924Z,102274.56
2018-11-13T23:57:52.746Z,102279.89
